Time;durP1;ratioP1;P1;durP2;ratioP2;P2;SDS_P1;SDS_P2;PMS_P1;PMS_P2;Temp;Humidity;BMP_temperature;BMP_pressure;BME280_temperature;BME280_humidity;BME280_pressure;Samples;Min_cycle;Max_cycle;Signal;HPM_P1;HPM_P2
2023/12/08 00:01:15;;;;;;;6.40;5.80;;;;;;;;;;5077599;28;20208;-61
2023/12/08 00:03:42;;;;;;;6.53;5.93;;;;;;;;;;5077322;28;20236;-61
2023/12/08 00:06:11;;;;;;;6.63;6.03;;;;;;;;;;5077607;28;20204;-61
2023/12/08 00:08:39;;;;;;;6.38;5.78;;;;;;;;;;5077376;28;20204;-61
2023/12/08 00:11:07;;;;;;;6.25;5.65;;;;;;;;;;5077017;28;20251;-61
2023/12/08 00:13:34;;;;;;;6.68;6.07;;;;;;;;;;5077474;28;20263;-61
2023/12/08 00:16:02;;;;;;;6.00;5.50;;;;;;;;;;5077087;28;20212;-61
2023/12/08 00:18:30;;;;;;;6.78;6.18;;;;;;;;;;5076928;28;20274;-61
2023/12/08 00:20:57;;;;;;;6.30;5.70;;;;;;;;;;5076526;28;20239;-61
2023/12/08 00:23:26;;;;;;;6.22;5.55;;;;;;;;;;5077152;28;20200;-61
2023/12/08 00:25:54;;;;;;;6.50;5.90;;;;;;;;;;5077423;28;20204;-61
2023/12/08 00:28:21;;;;;;;5.95;5.40;;;;;;;;;;5077473;28;20438;-61
2023/12/08 00:30:48;;;;;;;6.45;5.85;;;;;;;;;;5077435;28;20204;-61
2023/12/08 00:33:17;;;;;;;6.28;5.68;;;;;;;;;;5077301;28;20563;-61
2023/12/08 00:35:44;;;;;;;6.32;5.72;;;;;;;;;;5077268;28;20239;-61
2023/12/08 00:38:11;;;;;;;6.03;5.43;;;;;;;;;;5077488;28;20482;-61
2023/12/08 00:40:41;;;;;;;6.10;5.60;;;;;;;;;;5077091;28;20615;-61
2023/12/08 00:43:08;;;;;;;5.88;5.30;;;;;;;;;;5077098;28;20208;-61
2023/12/08 00:45:36;;;;;;;5.50;5.00;;;;;;;;;;5076659;28;20204;-61
2023/12/08 00:48:04;;;;;;;6.32;5.70;;;;;;;;;;5076840;28;20212;-61
2023/12/08 00:50:31;;;;;;;6.13;5.60;;;;;;;;;;5077042;28;20212;-61
2023/12/08 00:52:59;;;;;;;5.72;5.22;;;;;;;;;;5080339;28;20554;-61
2023/12/08 00:55:26;;;;;;;5.68;5.18;;;;;;;;;;5081460;28;20255;-61
2023/12/08 00:57:55;;;;;;;5.63;5.13;;;;;;;;;;5080878;28;20211;-61
2023/12/08 01:00:23;;;;;;;5.57;5.07;;;;;;;;;;5080915;28;20265;-61
2023/12/08 01:02:50;;;;;;;5.85;5.35;;;;;;;;;;5081040;28;20235;-61
2023/12/08 01:05:18;;;;;;;5.80;5.30;;;;;;;;;;5080893;28;20210;-61
2023/12/08 01:07:46;;;;;;;6.00;5.50;;;;;;;;;;5081080;28;20572;-61
2023/12/08 01:10:13;;;;;;;5.47;4.97;;;;;;;;;;5080926;28;20210;-61
2023/12/08 01:12:41;;;;;;;5.65;5.13;;;;;;;;;;5080829;28;20684;-61
2023/12/08 01:15:11;;;;;;;5.70;5.18;;;;;;;;;;5080494;28;20238;-61
2023/12/08 01:17:38;;;;;;;5.65;5.03;;;;;;;;;;5080521;28;20295;-61
2023/12/08 01:20:07;;;;;;;5.57;5.07;;;;;;;;;;5080249;28;20717;-61
2023/12/08 01:22:35;;;;;;;5.40;4.90;;;;;;;;;;5080513;28;20215;-61
2023/12/08 01:25:02;;;;;;;5.50;5.00;;;;;;;;;;5080574;28;20269;-61
2023/12/08 01:27:29;;;;;;;5.55;5.05;;;;;;;;;;5080412;28;20649;-61
2023/12/08 01:29:57;;;;;;;5.22;4.78;;;;;;;;;;5080571;28;20583;-61
2023/12/08 01:32:26;;;;;;;5.60;5.10;;;;;;;;;;5080314;28;20212;-61
2023/12/08 01:34:54;;;;;;;4.88;4.47;;;;;;;;;;5080341;28;20235;-61
2023/12/08 01:37:21;;;;;;;5.20;4.70;;;;;;;;;;5080149;28;20204;-61
2023/12/08 01:39:49;;;;;;;4.45;4.07;;;;;;;;;;5080722;28;20825;-61
2023/12/08 01:42:16;;;;;;;4.85;4.45;;;;;;;;;;5080315;28;20234;-61
2023/12/08 01:44:44;;;;;;;4.82;4.43;;;;;;;;;;5080195;28;20231;-61
2023/12/08 01:47:12;;;;;;;5.15;4.65;;;;;;;;;;5080065;28;20211;-61
2023/12/08 01:49:41;;;;;;;4.85;4.45;;;;;;;;;;5079899;28;20539;-61
2023/12/08 01:52:10;;;;;;;4.80;4.40;;;;;;;;;;5080129;28;20299;-61
2023/12/08 01:54:37;;;;;;;4.82;4.43;;;;;;;;;;5079744;28;20706;-61
2023/12/08 01:57:05;;;;;;;4.70;4.30;;;;;;;;;;5079918;28;20560;-61
2023/12/08 01:59:33;;;;;;;4.90;4.50;;;;;;;;;;5079937;28;20307;-61
2023/12/08 02:02:00;;;;;;;4.95;4.55;;;;;;;;;;5080140;28;20208;-61
2023/12/08 02:04:28;;;;;;;4.50;4.10;;;;;;;;;;5078652;28;20236;-61
2023/12/08 02:06:57;;;;;;;4.85;4.45;;;;;;;;;;5080412;28;20552;-61
2023/12/08 02:09:25;;;;;;;4.45;4.05;;;;;;;;;;5079391;28;20685;-61
2023/12/08 02:11:52;;;;;;;4.45;4.05;;;;;;;;;;5079475;28;20610;-61
2023/12/08 02:14:20;;;;;;;3.95;3.65;;;;;;;;;;5079320;28;20318;-61
2023/12/08 02:16:50;;;;;;;4.38;3.97;;;;;;;;;;5079435;28;20294;-61
2023/12/08 02:19:19;;;;;;;4.47;4.07;;;;;;;;;;5079328;28;20265;-61
2023/12/08 02:21:46;;;;;;;4.05;3.75;;;;;;;;;;5079380;28;20536;-61
2023/12/08 02:24:19;;;;;;;4.15;3.85;;;;;;;;;;5079804;28;20226;-61
2023/12/08 02:27:04;;;;;;;3.90;3.60;;;;;;;;;;5079392;28;20204;-61
2023/12/08 02:29:32;;;;;;;4.22;3.83;;;;;;;;;;5079680;28;20215;-61
2023/12/08 02:32:01;;;;;;;3.97;3.67;;;;;;;;;;5079514;28;20307;-61
2023/12/08 02:34:30;;;;;;;4.35;4.00;;;;;;;;;;5078924;28;20323;-61
2023/12/08 02:36:59;;;;;;;3.80;3.50;;;;;;;;;;5079171;28;20204;-61
2023/12/08 02:39:28;;;;;;;3.95;3.65;;;;;;;;;;5079068;28;20208;-61
2023/12/08 02:41:56;;;;;;;3.92;3.53;;;;;;;;;;5079242;28;20248;-61
2023/12/08 02:44:24;;;;;;;3.88;3.58;;;;;;;;;;5079082;28;20207;-61
2023/12/08 02:46:51;;;;;;;3.63;3.33;;;;;;;;;;5078912;28;20262;-61
2023/12/08 02:49:19;;;;;;;3.83;3.53;;;;;;;;;;5078992;28;20295;-61
2023/12/08 02:51:47;;;;;;;3.60;3.30;;;;;;;;;;5078812;28;20235;-61
2023/12/08 02:54:14;;;;;;;3.58;3.28;;;;;;;;;;5078534;28;20231;-61
2023/12/08 02:56:43;;;;;;;3.67;3.38;;;;;;;;;;5078802;28;20235;-61
2023/12/08 02:59:10;;;;;;;3.63;3.33;;;;;;;;;;5078922;28;20252;-61
2023/12/08 03:01:38;;;;;;;3.08;2.88;;;;;;;;;;5078733;28;20205;-61
2023/12/08 03:04:06;;;;;;;3.50;3.20;;;;;;;;;;5078688;28;20200;-61
2023/12/08 03:06:33;;;;;;;3.45;3.15;;;;;;;;;;5078638;28;20231;-62
2023/12/08 03:09:01;;;;;;;3.35;3.05;;;;;;;;;;5078716;28;20204;-61
2023/12/08 03:11:28;;;;;;;3.67;3.38;;;;;;;;;;5078743;28;20212;-61
2023/12/08 03:13:57;;;;;;;3.40;3.10;;;;;;;;;;5078683;28;20224;-61
2023/12/08 03:16:25;;;;;;;3.28;2.97;;;;;;;;;;5078281;28;20243;-61
2023/12/08 03:18:52;;;;;;;3.38;3.08;;;;;;;;;;5078636;28;20322;-61
2023/12/08 03:21:23;;;;;;;2.80;2.60;;;;;;;;;;5078221;28;20232;-61
2023/12/08 03:23:50;;;;;;;3.63;3.15;;;;;;;;;;5078394;28;20633;-61
2023/12/08 03:26:19;;;;;;;2.90;2.70;;;;;;;;;;5078440;28;20659;-61
2023/12/08 03:28:47;;;;;;;2.88;2.67;;;;;;;;;;5078115;28;20507;-61
2023/12/08 03:31:23;;;;;;;3.08;2.78;;;;;;;;;;5077738;28;20204;-61
2023/12/08 03:33:50;;;;;;;3.30;3.00;;;;;;;;;;5078061;28;20590;-61
2023/12/08 03:36:18;;;;;;;3.15;2.90;;;;;;;;;;5077959;28;20212;-61
2023/12/08 03:38:45;;;;;;;2.97;2.78;;;;;;;;;;5078310;28;20654;-61
2023/12/08 03:41:13;;;;;;;3.13;2.83;;;;;;;;;;5078369;28;20273;-61
2023/12/08 03:43:41;;;;;;;3.22;2.92;;;;;;;;;;5077736;28;20200;-61
2023/12/08 03:46:09;;;;;;;3.08;2.88;;;;;;;;;;5077574;28;20204;-61
2023/12/08 03:48:37;;;;;;;2.70;2.50;;;;;;;;;;5077710;28;20204;-61
2023/12/08 03:51:05;;;;;;;2.83;2.63;;;;;;;;;;5077568;28;20712;-61
2023/12/08 03:53:32;;;;;;;2.67;2.47;;;;;;;;;;5077578;28;20259;-61
2023/12/08 03:56:00;;;;;;;2.83;2.63;;;;;;;;;;5077956;28;20303;-61
2023/12/08 03:58:29;;;;;;;2.80;2.60;;;;;;;;;;5077970;28;20283;-61
2023/12/08 04:00:56;;;;;;;2.75;2.55;;;;;;;;;;5077515;28;20534;-61
2023/12/08 04:03:24;;;;;;;2.80;2.60;;;;;;;;;;5077562;28;20657;-61
2023/12/08 04:05:52;;;;;;;2.70;2.50;;;;;;;;;;5077730;28;20240;-61
2023/12/08 04:08:20;;;;;;;2.80;2.60;;;;;;;;;;5077285;28;20212;-61
2023/12/08 04:10:47;;;;;;;2.92;2.67;;;;;;;;;;5077472;28;20265;-61
2023/12/08 04:13:15;;;;;;;2.70;2.50;;;;;;;;;;5077303;28;20204;-61
2023/12/08 04:15:43;;;;;;;2.70;2.50;;;;;;;;;;5077144;28;20204;-61
2023/12/08 04:18:10;;;;;;;2.60;2.40;;;;;;;;;;5076732;28;20303;-61
2023/12/08 04:20:37;;;;;;;2.80;2.60;;;;;;;;;;5076972;28;20254;-61
2023/12/08 04:23:06;;;;;;;3.05;2.78;;;;;;;;;;5077126;28;20211;-61
2023/12/08 04:25:34;;;;;;;2.45;2.25;;;;;;;;;;5076547;28;20230;-61
2023/12/08 04:28:02;;;;;;;2.50;2.30;;;;;;;;;;5076241;28;20235;-61
2023/12/08 04:30:29;;;;;;;2.60;2.40;;;;;;;;;;5076990;28;20600;-61
2023/12/08 04:32:56;;;;;;;2.33;2.13;;;;;;;;;;5076940;28;20249;-61
2023/12/08 04:35:25;;;;;;;2.70;2.42;;;;;;;;;;5076317;28;20224;-61
2023/12/08 04:37:52;;;;;;;2.45;2.25;;;;;;;;;;5076797;28;20303;-61
2023/12/08 04:40:21;;;;;;;2.80;2.55;;;;;;;;;;5076617;28;20253;-61
2023/12/08 04:42:49;;;;;;;2.55;2.35;;;;;;;;;;5077123;28;20518;-61
2023/12/08 04:45:16;;;;;;;2.50;2.30;;;;;;;;;;5076532;28;20200;-61
2023/12/08 04:47:44;;;;;;;2.60;2.40;;;;;;;;;;5077065;28;20569;-61
2023/12/08 04:50:11;;;;;;;2.33;2.13;;;;;;;;;;5076994;28;20564;-61
2023/12/08 04:52:39;;;;;;;2.50;2.30;;;;;;;;;;5077288;28;20302;-61
2023/12/08 04:55:07;;;;;;;2.13;1.92;;;;;;;;;;5076290;28;20269;-61
2023/12/08 04:57:36;;;;;;;2.50;2.30;;;;;;;;;;5076665;28;20238;-61
2023/12/08 05:00:05;;;;;;;2.70;2.50;;;;;;;;;;5076488;28;20628;-61
2023/12/08 05:02:32;;;;;;;2.50;2.30;;;;;;;;;;5076772;28;20204;-61
2023/12/08 05:04:59;;;;;;;2.50;2.30;;;;;;;;;;5076213;28;20201;-61
2023/12/08 05:07:29;;;;;;;2.58;2.38;;;;;;;;;;5076638;28;20208;-61
2023/12/08 05:09:56;;;;;;;2.53;2.33;;;;;;;;;;5076429;28;20211;-61
2023/12/08 05:12:23;;;;;;;2.55;2.35;;;;;;;;;;5076777;28;20215;-61
2023/12/08 05:14:52;;;;;;;2.53;2.33;;;;;;;;;;5076545;28;20235;-61
2023/12/08 05:17:19;;;;;;;2.72;2.53;;;;;;;;;;5076378;28;20235;-61
2023/12/08 05:19:46;;;;;;;2.50;2.30;;;;;;;;;;5076554;28;20212;-61
2023/12/08 05:22:14;;;;;;;2.47;2.28;;;;;;;;;;5075437;28;20212;-61
2023/12/08 05:24:41;;;;;;;2.60;2.40;;;;;;;;;;5076440;28;20605;-61
2023/12/08 05:27:09;;;;;;;2.53;2.33;;;;;;;;;;5076064;28;20204;-61
2023/12/08 05:29:36;;;;;;;2.33;2.13;;;;;;;;;;5075630;28;20308;-61
2023/12/08 05:32:05;;;;;;;2.25;2.10;;;;;;;;;;5075860;28;20485;-61
2023/12/08 05:34:32;;;;;;;2.60;2.40;;;;;;;;;;5076179;28;20225;-61
2023/12/08 05:37:00;;;;;;;2.10;2.00;;;;;;;;;;5075746;28;20204;-61
2023/12/08 05:39:27;;;;;;;2.50;2.30;;;;;;;;;;5076343;28;20208;-61
2023/12/08 05:41:55;;;;;;;2.67;2.47;;;;;;;;;;5077621;28;20614;-61
2023/12/08 05:44:22;;;;;;;2.30;2.10;;;;;;;;;;5078646;28;20453;-61
2023/12/08 05:46:49;;;;;;;2.65;2.45;;;;;;;;;;5078348;28;20208;-61
2023/12/08 05:49:18;;;;;;;2.72;2.53;;;;;;;;;;5079426;28;20212;-61
2023/12/08 05:51:45;;;;;;;2.55;2.35;;;;;;;;;;5078687;28;20204;-61
2023/12/08 05:54:13;;;;;;;2.20;2.10;;;;;;;;;;5078022;28;20236;-61
2023/12/08 05:56:40;;;;;;;2.50;2.30;;;;;;;;;;5077827;28;20737;-61
2023/12/08 05:59:08;;;;;;;2.30;2.10;;;;;;;;;;5077658;28;20587;-61
2023/12/08 06:01:35;;;;;;;2.80;2.55;;;;;;;;;;5077168;28;20215;-61
2023/12/08 06:04:03;;;;;;;2.40;2.20;;;;;;;;;;5077067;28;20204;-61
2023/12/08 06:06:32;;;;;;;2.20;2.00;;;;;;;;;;5077107;28;20774;-61
2023/12/08 06:09:00;;;;;;;2.40;2.20;;;;;;;;;;5076831;28;20246;-62
2023/12/08 06:11:28;;;;;;;2.40;2.20;;;;;;;;;;5077144;28;20219;-62
2023/12/08 06:13:55;;;;;;;2.50;2.30;;;;;;;;;;5076626;28;20204;-62
2023/12/08 06:16:22;;;;;;;2.35;2.15;;;;;;;;;;5076952;28;20584;-62
2023/12/08 06:18:50;;;;;;;2.63;2.42;;;;;;;;;;5076861;28;20196;-61
2023/12/08 06:21:17;;;;;;;2.67;2.47;;;;;;;;;;5076926;28;20236;-61
2023/12/08 06:23:46;;;;;;;2.25;2.05;;;;;;;;;;5077070;28;20590;-61
2023/12/08 06:26:13;;;;;;;2.47;2.28;;;;;;;;;;5077684;28;20481;-61
2023/12/08 06:28:40;;;;;;;2.45;2.25;;;;;;;;;;5077500;28;20231;-61
2023/12/08 06:31:10;;;;;;;2.60;2.40;;;;;;;;;;5076626;28;20215;-61
2023/12/08 06:33:37;;;;;;;2.58;2.38;;;;;;;;;;5076897;28;20375;-61
2023/12/08 06:36:05;;;;;;;3.08;2.70;;;;;;;;;;5076509;28;20235;-61
2023/12/08 06:38:33;;;;;;;2.75;2.45;;;;;;;;;;5076597;28;20208;-61
2023/12/08 06:41:02;;;;;;;2.90;2.60;;;;;;;;;;5076174;28;20243;-61
2023/12/08 06:43:29;;;;;;;2.90;2.35;;;;;;;;;;5076428;28;20208;-61
2023/12/08 06:45:57;;;;;;;3.10;2.60;;;;;;;;;;5075501;28;20209;-61
2023/12/08 06:48:24;;;;;;;2.60;2.40;;;;;;;;;;5075752;28;20216;-61
2023/12/08 06:50:52;;;;;;;2.85;2.53;;;;;;;;;;5074886;28;20211;-61
2023/12/08 06:53:19;;;;;;;3.50;2.88;;;;;;;;;;5076235;28;20196;-61
2023/12/08 06:55:46;;;;;;;2.53;2.33;;;;;;;;;;5076447;28;20238;-61
2023/12/08 06:58:15;;;;;;;2.22;2.03;;;;;;;;;;5075979;28;20196;-61
2023/12/08 07:00:43;;;;;;;2.90;2.70;;;;;;;;;;5077150;28;20204;-61
2023/12/08 07:03:10;;;;;;;4.45;2.47;;;;;;;;;;5075585;28;20205;-61
2023/12/08 07:05:38;;;;;;;2.47;2.28;;;;;;;;;;5075763;28;20231;-61
2023/12/08 07:08:05;;;;;;;2.80;2.60;;;;;;;;;;5075375;28;20205;-61
2023/12/08 07:10:32;;;;;;;2.70;2.50;;;;;;;;;;5076450;28;20219;-61
2023/12/08 07:13:00;;;;;;;3.17;2.50;;;;;;;;;;5076246;28;20212;-61
2023/12/08 07:15:29;;;;;;;2.60;2.35;;;;;;;;;;5076263;28;20255;-61
2023/12/08 07:17:56;;;;;;;2.58;2.35;;;;;;;;;;5076318;28;20207;-61
2023/12/08 07:20:24;;;;;;;2.53;2.33;;;;;;;;;;5075942;28;20240;-61
2023/12/08 07:22:51;;;;;;;3.80;2.53;;;;;;;;;;5076198;28;20204;-61
2023/12/08 07:25:18;;;;;;;2.95;2.75;;;;;;;;;;5076778;28;20576;-61
2023/12/08 07:27:46;;;;;;;3.03;2.35;;;;;;;;;;5077001;28;20208;-61
2023/12/08 07:30:14;;;;;;;2.67;2.47;;;;;;;;;;5076249;28;20204;-61
2023/12/08 07:32:42;;;;;;;2.72;2.53;;;;;;;;;;5076760;28;20204;-61
2023/12/08 07:35:10;;;;;;;3.65;2.80;;;;;;;;;;5076566;28;20228;-61
2023/12/08 07:37:41;;;;;;;2.88;2.58;;;;;;;;;;5076996;28;20486;-61
2023/12/08 07:40:09;;;;;;;2.83;2.63;;;;;;;;;;5076978;28;20246;-61
2023/12/08 07:42:37;;;;;;;3.08;2.55;;;;;;;;;;5076459;28;20212;-61
2023/12/08 07:45:05;;;;;;;3.00;2.70;;;;;;;;;;5076058;28;20201;-61
2023/12/08 07:47:32;;;;;;;2.80;2.60;;;;;;;;;;5076373;28;20209;-61
2023/12/08 07:50:01;;;;;;;3.25;2.70;;;;;;;;;;5075709;28;20514;-61
2023/12/08 07:52:31;;;;;;;2.97;2.67;;;;;;;;;;5075783;28;20211;-61
2023/12/08 07:54:59;;;;;;;3.13;2.83;;;;;;;;;;5075489;28;20254;-61
2023/12/08 07:57:26;;;;;;;3.45;2.42;;;;;;;;;;5076236;28;20212;-61
2023/12/08 07:59:53;;;;;;;2.80;2.60;;;;;;;;;;5075802;28;20212;-61
2023/12/08 08:02:21;;;;;;;3.20;2.60;;;;;;;;;;5075081;28;20212;-61
2023/12/08 08:04:48;;;;;;;3.22;2.78;;;;;;;;;;5075484;28;20215;-61
2023/12/08 08:07:17;;;;;;;3.35;3.05;;;;;;;;;;5075804;28;20205;-61
2023/12/08 08:09:44;;;;;;;3.05;2.75;;;;;;;;;;5076233;28;20269;-61
2023/12/08 08:12:12;;;;;;;2.97;2.70;;;;;;;;;;5075448;28;20204;-61
2023/12/08 08:14:39;;;;;;;2.88;2.67;;;;;;;;;;5075527;28;20204;-61
2023/12/08 08:17:06;;;;;;;3.22;2.92;;;;;;;;;;5075633;28;20234;-62
2023/12/08 08:19:34;;;;;;;3.05;2.75;;;;;;;;;;5076321;28;20196;-61
2023/12/08 08:22:01;;;;;;;3.17;2.90;;;;;;;;;;5075360;28;20235;-61
2023/12/08 08:24:30;;;;;;;3.22;3.00;;;;;;;;;;5076391;28;20205;-61
2023/12/08 08:26:58;;;;;;;3.05;2.75;;;;;;;;;;5075011;28;20243;-61
2023/12/08 08:29:25;;;;;;;3.08;2.85;;;;;;;;;;5075628;28;20502;-61
2023/12/08 08:31:52;;;;;;;3.15;2.85;;;;;;;;;;5074375;28;20208;-61
2023/12/08 08:34:20;;;;;;;2.85;2.65;;;;;;;;;;5075069;28;20235;-61
2023/12/08 08:36:47;;;;;;;3.40;3.10;;;;;;;;;;5073846;28;20493;-61
2023/12/08 08:39:15;;;;;;;4.03;3.30;;;;;;;;;;5075228;28;20592;-61
2023/12/08 08:41:45;;;;;;;3.22;2.92;;;;;;;;;;5075034;28;20311;-61
2023/12/08 08:44:12;;;;;;;3.05;2.75;;;;;;;;;;5075303;28;20243;-61
2023/12/08 08:46:41;;;;;;;3.10;2.80;;;;;;;;;;5075362;28;20201;-61
2023/12/08 08:49:09;;;;;;;3.30;3.00;;;;;;;;;;5075221;28;20203;-61
2023/12/08 08:51:38;;;;;;;3.20;2.90;;;;;;;;;;5074867;28;20204;-61
2023/12/08 08:54:05;;;;;;;3.15;2.85;;;;;;;;;;5074700;28;20204;-61
2023/12/08 08:56:32;;;;;;;3.30;3.00;;;;;;;;;;5075527;28;20228;-61
2023/12/08 08:59:01;;;;;;;3.20;2.90;;;;;;;;;;5074892;28;20279;-61
2023/12/08 09:01:29;;;;;;;3.42;3.13;;;;;;;;;;5075163;28;20204;-61
2023/12/08 09:03:57;;;;;;;4.35;3.40;;;;;;;;;;5074939;28;20207;-61
2023/12/08 09:06:24;;;;;;;3.60;3.30;;;;;;;;;;5075475;28;20465;-61
2023/12/08 09:08:51;;;;;;;3.83;3.20;;;;;;;;;;5075433;28;20258;-61
2023/12/08 09:11:19;;;;;;;4.07;3.30;;;;;;;;;;5075326;28;20211;-61
2023/12/08 09:13:46;;;;;;;3.75;3.13;;;;;;;;;;5077874;28;20204;-61
2023/12/08 09:16:15;;;;;;;4.45;3.28;;;;;;;;;;5078416;28;20228;-61
2023/12/08 09:18:43;;;;;;;6.15;3.42;;;;;;;;;;5078660;28;20262;-61
2023/12/08 09:21:10;;;;;;;5.57;3.67;;;;;;;;;;5078060;28;20231;-61
2023/12/08 09:23:37;;;;;;;5.05;3.78;;;;;;;;;;5078699;28;20501;-61
2023/12/08 09:26:05;;;;;;;6.80;3.90;;;;;;;;;;5078311;28;20215;-61
2023/12/08 09:28:32;;;;;;;4.93;3.97;;;;;;;;;;5077599;28;20200;-61
2023/12/08 09:31:00;;;;;;;6.85;4.47;;;;;;;;;;5077774;28;20204;-61
2023/12/08 09:33:29;;;;;;;6.63;3.97;;;;;;;;;;5078253;28;20207;-61
2023/12/08 09:35:57;;;;;;;5.22;3.85;;;;;;;;;;5077708;28;20274;-61
2023/12/08 09:38:25;;;;;;;5.00;4.18;;;;;;;;;;5077823;28;20214;-61
2023/12/08 09:40:52;;;;;;;5.32;3.92;;;;;;;;;;5077652;28;20705;-61
2023/12/08 09:43:23;;;;;;;5.95;4.63;;;;;;;;;;5077372;28;20204;-61
2023/12/08 09:45:51;;;;;;;6.25;3.63;;;;;;;;;;5077791;28;20201;-61
2023/12/08 09:48:19;;;;;;;5.30;4.35;;;;;;;;;;5077374;28;20227;-61
2023/12/08 09:50:50;;;;;;;6.18;4.35;;;;;;;;;;5077698;28;20529;-61
2023/12/08 09:53:17;;;;;;;7.45;4.43;;;;;;;;;;5078122;28;20477;-61
2023/12/08 09:55:47;;;;;;;6.72;4.60;;;;;;;;;;5077589;28;20623;-61
2023/12/08 09:58:16;;;;;;;6.95;4.57;;;;;;;;;;5077437;28;20281;-61
2023/12/08 10:00:43;;;;;;;5.85;4.10;;;;;;;;;;5077441;28;20505;-61
2023/12/08 10:03:11;;;;;;;7.90;4.57;;;;;;;;;;5077388;28;20204;-61
2023/12/08 10:05:38;;;;;;;5.85;4.43;;;;;;;;;;5077562;28;20208;-61
2023/12/08 10:08:08;;;;;;;7.30;4.15;;;;;;;;;;5077383;28;20204;-61
2023/12/08 10:10:37;;;;;;;6.90;4.40;;;;;;;;;;5077633;28;20200;-61
2023/12/08 10:13:05;;;;;;;6.07;4.10;;;;;;;;;;5076947;28;20212;-61
2023/12/08 10:15:32;;;;;;;6.65;4.15;;;;;;;;;;5076929;28;20278;-61
2023/12/08 10:17:59;;;;;;;6.55;4.97;;;;;;;;;;5077193;28;20235;-61
2023/12/08 10:20:27;;;;;;;6.93;4.13;;;;;;;;;;5076577;28;20240;-61
2023/12/08 10:22:55;;;;;;;8.43;4.40;;;;;;;;;;5077142;28;20213;-61
2023/12/08 10:25:24;;;;;;;8.32;4.32;;;;;;;;;;5076556;28;20498;-61
2023/12/08 10:27:53;;;;;;;5.78;4.35;;;;;;;;;;5076749;28;20212;-61
2023/12/08 10:30:21;;;;;;;7.22;4.82;;;;;;;;;;5075882;28;20204;-61
2023/12/08 10:32:48;;;;;;;6.40;4.57;;;;;;;;;;5076193;28;20204;-61
2023/12/08 10:35:15;;;;;;;5.82;4.53;;;;;;;;;;5076366;28;20612;-61
2023/12/08 10:37:44;;;;;;;6.90;4.10;;;;;;;;;;5076606;28;20228;-61
2023/12/08 10:40:12;;;;;;;4.60;3.85;;;;;;;;;;5076277;28;20236;-61
2023/12/08 10:42:42;;;;;;;5.65;4.32;;;;;;;;;;5075660;28;20277;-61
2023/12/08 10:45:11;;;;;;;6.72;4.78;;;;;;;;;;5076418;28;20306;-61
2023/12/08 10:47:40;;;;;;;6.65;4.28;;;;;;;;;;5075674;28;20200;-61
2023/12/08 10:50:09;;;;;;;6.07;4.50;;;;;;;;;;5075431;28;20204;-61
2023/12/08 10:52:38;;;;;;;6.63;4.53;;;;;;;;;;5076476;28;20211;-61
2023/12/08 10:55:06;;;;;;;6.15;4.22;;;;;;;;;;5075599;28;20205;-61
2023/12/08 10:57:33;;;;;;;5.63;4.35;;;;;;;;;;5076237;28;20232;-61
2023/12/08 11:00:11;;;;;;;6.30;4.90;;;;;;;;;;5075458;28;20204;-61
2023/12/08 11:02:41;;;;;;;5.90;3.78;;;;;;;;;;5076340;28;20595;-61
2023/12/08 11:05:11;;;;;;;5.82;4.18;;;;;;;;;;5076105;28;20196;-61
2023/12/08 11:07:40;;;;;;;6.00;4.20;;;;;;;;;;5075996;28;20200;-61
2023/12/08 11:10:08;;;;;;;5.05;4.20;;;;;;;;;;5076565;28;20205;-61
2023/12/08 11:12:40;;;;;;;5.50;4.22;;;;;;;;;;5076679;28;20231;-61
2023/12/08 11:15:15;;;;;;;5.43;3.88;;;;;;;;;;5075476;28;20278;-61
2023/12/08 11:17:43;;;;;;;6.55;4.70;;;;;;;;;;5075258;28;20262;-61
2023/12/08 11:20:13;;;;;;;4.82;4.05;;;;;;;;;;5074680;28;20244;-61
2023/12/08 11:22:40;;;;;;;6.55;4.63;;;;;;;;;;5075382;28;20566;-61
2023/12/08 11:25:10;;;;;;;6.70;4.45;;;;;;;;;;5075592;28;20231;-61
2023/12/08 11:27:41;;;;;;;5.03;4.13;;;;;;;;;;5075946;28;20200;-61
2023/12/08 11:30:13;;;;;;;6.25;4.47;;;;;;;;;;5075653;28;20805;-61
2023/12/08 11:32:45;;;;;;;5.78;4.03;;;;;;;;;;5074612;28;20753;-61
2023/12/08 11:35:16;;;;;;;4.90;3.88;;;;;;;;;;5074478;28;20204;-61
2023/12/08 11:37:45;;;;;;;4.82;3.85;;;;;;;;;;5074585;28;20639;-61
2023/12/08 11:40:13;;;;;;;5.78;4.22;;;;;;;;;;5075165;28;20573;-61
2023/12/08 11:42:41;;;;;;;5.90;4.35;;;;;;;;;;5075700;28;20196;-61
2023/12/08 11:45:12;;;;;;;6.60;4.32;;;;;;;;;;5074720;28;20215;-61
2023/12/08 11:47:40;;;;;;;4.88;3.72;;;;;;;;;;5074834;28;20580;-61
2023/12/08 11:50:10;;;;;;;5.93;4.18;;;;;;;;;;5074851;28;20212;-62
2023/12/08 11:52:37;;;;;;;5.80;4.40;;;;;;;;;;5074774;28;20206;-62
2023/12/08 11:55:12;;;;;;;4.93;3.92;;;;;;;;;;5075128;28;20591;-61
2023/12/08 11:57:42;;;;;;;6.53;4.07;;;;;;;;;;5073580;28;20236;-61
2023/12/08 12:00:13;;;;;;;5.82;4.50;;;;;;;;;;5070821;28;20193;-61
2023/12/08 12:02:43;;;;;;;5.55;4.65;;;;;;;;;;5055021;28;20243;-61
2023/12/08 12:05:11;;;;;;;5.05;4.32;;;;;;;;;;5052649;28;20204;-61
2023/12/08 12:07:39;;;;;;;4.90;3.97;;;;;;;;;;5053744;28;20601;-61
2023/12/08 12:10:10;;;;;;;4.70;3.83;;;;;;;;;;5054734;28;20220;-62
2023/12/08 12:12:38;;;;;;;4.60;3.92;;;;;;;;;;5044322;28;20300;-62
2023/12/08 12:15:08;;;;;;;6.28;4.18;;;;;;;;;;5034984;28;20216;-62
2023/12/08 12:17:38;;;;;;;4.95;3.67;;;;;;;;;;5044623;28;20315;-62
2023/12/08 12:20:08;;;;;;;5.07;3.95;;;;;;;;;;5054504;28;20274;-62
2023/12/08 12:22:35;;;;;;;4.10;3.70;;;;;;;;;;5044417;28;20611;-62
2023/12/08 12:25:03;;;;;;;5.00;4.00;;;;;;;;;;5055053;28;20205;-62
2023/12/08 12:27:31;;;;;;;4.85;4.25;;;;;;;;;;5053895;28;20288;-62
2023/12/08 12:29:58;;;;;;;5.60;4.55;;;;;;;;;;5054111;28;20259;-62
2023/12/08 12:32:26;;;;;;;4.28;3.88;;;;;;;;;;5054603;28;20196;-62
2023/12/08 12:34:55;;;;;;;4.82;4.30;;;;;;;;;;5054439;28;20205;-62
2023/12/08 12:37:22;;;;;;;5.05;3.67;;;;;;;;;;5053942;28;20243;-62
2023/12/08 12:39:50;;;;;;;4.93;3.92;;;;;;;;;;5054049;28;20670;-62
2023/12/08 12:42:18;;;;;;;6.30;4.40;;;;;;;;;;5053556;28;20205;-62
2023/12/08 12:44:46;;;;;;;5.43;3.85;;;;;;;;;;5053819;28;20201;-62
2023/12/08 12:47:14;;;;;;;8.05;4.00;;;;;;;;;;5054724;28;20215;-62
2023/12/08 12:49:42;;;;;;;5.55;4.13;;;;;;;;;;5057220;28;20564;-62
2023/12/08 12:52:23;;;;;;;4.05;3.65;;;;;;;;;;5057390;28;20711;-62
2023/12/08 12:54:51;;;;;;;4.45;3.67;;;;;;;;;;5057355;28;20208;-62
2023/12/08 12:57:19;;;;;;;4.68;3.92;;;;;;;;;;5057437;28;20220;-62
2023/12/08 12:59:53;;;;;;;5.15;3.75;;;;;;;;;;5058082;28;20274;-62
2023/12/08 13:02:29;;;;;;;4.40;3.25;;;;;;;;;;5058021;28;20209;-62
2023/12/08 13:04:57;;;;;;;6.43;4.20;;;;;;;;;;5038475;28;20217;-62
2023/12/08 13:07:26;;;;;;;5.18;3.45;;;;;;;;;;5038939;28;20216;-62
2023/12/08 13:09:54;;;;;;;5.35;3.80;;;;;;;;;;5057716;28;20301;-62
2023/12/08 13:12:22;;;;;;;5.40;3.83;;;;;;;;;;5058409;28;20205;-62
2023/12/08 13:14:49;;;;;;;5.28;3.90;;;;;;;;;;5057714;28;20205;-62
2023/12/08 13:17:19;;;;;;;5.53;3.65;;;;;;;;;;5058145;28;20229;-62
2023/12/08 13:19:48;;;;;;;6.00;4.07;;;;;;;;;;5058313;28;20205;-62
2023/12/08 13:22:15;;;;;;;3.90;3.50;;;;;;;;;;5033099;28;20237;-62
2023/12/08 13:24:47;;;;;;;3.95;3.55;;;;;;;;;;5037287;28;20209;-62
2023/12/08 13:27:14;;;;;;;4.57;3.45;;;;;;;;;;4997851;28;20203;-62
2023/12/08 13:29:41;;;;;;;4.55;3.38;;;;;;;;;;4997430;28;20214;-62
2023/12/08 13:32:09;;;;;;;4.53;3.85;;;;;;;;;;5016426;28;20209;-62
2023/12/08 13:34:36;;;;;;;3.80;3.22;;;;;;;;;;5017813;28;20210;-62
2023/12/08 13:37:04;;;;;;;4.40;3.22;;;;;;;;;;5016796;28;20801;-62
2023/12/08 13:39:32;;;;;;;4.10;3.53;;;;;;;;;;5016608;28;20272;-61
2023/12/08 13:42:01;;;;;;;3.58;3.15;;;;;;;;;;5016190;28;20641;-61
2023/12/08 13:44:28;;;;;;;4.30;3.60;;;;;;;;;;5028432;28;20299;-61
2023/12/08 13:46:55;;;;;;;5.20;3.75;;;;;;;;;;5037481;28;20212;-61
2023/12/08 13:49:23;;;;;;;3.58;3.05;;;;;;;;;;5037477;28;20204;-62
2023/12/08 13:51:50;;;;;;;3.53;3.22;;;;;;;;;;5036932;28;20614;-62
2023/12/08 13:54:18;;;;;;;5.03;3.28;;;;;;;;;;5036911;28;20236;-62
2023/12/08 13:56:45;;;;;;;4.38;3.45;;;;;;;;;;5036812;28;20237;-62
2023/12/08 13:59:14;;;;;;;4.53;3.85;;;;;;;;;;5036482;28;20245;-62
2023/12/08 14:01:42;;;;;;;3.33;3.03;;;;;;;;;;5037035;28;20726;-62
2023/12/08 14:04:09;;;;;;;3.75;3.33;;;;;;;;;;5036889;28;20228;-62
2023/12/08 14:06:37;;;;;;;4.40;3.67;;;;;;;;;;5037210;28;20210;-62
2023/12/08 14:09:05;;;;;;;4.70;3.88;;;;;;;;;;5036548;28;20295;-62
2023/12/08 14:11:33;;;;;;;3.70;3.40;;;;;;;;;;5037254;28;20206;-62
2023/12/08 14:14:00;;;;;;;3.92;3.42;;;;;;;;;;5037713;28;20213;-62
2023/12/08 14:16:29;;;;;;;3.92;3.40;;;;;;;;;;5037139;28;20206;-62
2023/12/08 14:18:57;;;;;;;4.85;3.25;;;;;;;;;;5036618;28;20582;-62
2023/12/08 14:21:24;;;;;;;3.70;3.38;;;;;;;;;;5062505;28;20243;-62
2023/12/08 14:23:51;;;;;;;3.40;3.10;;;;;;;;;;5077019;28;20204;-62
2023/12/08 14:26:19;;;;;;;3.70;3.10;;;;;;;;;;5077030;28;20215;-62
2023/12/08 14:28:46;;;;;;;4.00;3.15;;;;;;;;;;5076989;28;20200;-62
2023/12/08 14:31:14;;;;;;;3.78;3.13;;;;;;;;;;5075932;28;20299;-62
2023/12/08 14:33:43;;;;;;;4.03;3.30;;;;;;;;;;5076418;28;20746;-62
2023/12/08 14:36:10;;;;;;;3.85;3.55;;;;;;;;;;5076407;28;20215;-62
2023/12/08 14:38:38;;;;;;;3.65;3.35;;;;;;;;;;5076085;28;20224;-62
2023/12/08 14:41:05;;;;;;;4.38;3.28;;;;;;;;;;5075539;28;20196;-62
2023/12/08 14:43:33;;;;;;;3.50;3.20;;;;;;;;;;5075627;28;20211;-62
2023/12/08 14:46:03;;;;;;;3.60;3.30;;;;;;;;;;5076298;28;20205;-62
2023/12/08 14:48:30;;;;;;;3.70;3.30;;;;;;;;;;5076265;28;20569;-62